Georgetown, TN (37336)

8:05 AM EDT on September 04, 2015 (GMT -0400)
Moon Shadows | | Change Station
CLOSE
Current Station
Personal Weather Station
Location: Harrison, TN
Elevation: 827 ft
Nearby Weather Stations

Elev 827 ft 35.20 °N, 85.06 °W | Updated 6 minutes ago

Clear
Clear
66.6 °F
Feels Like 66.6 °F
N
0.0
Wind Variable Wind from SSE

Today
High -- | Low -- °F
--% Chance of Precip.
Yesterday
High -- | Low -- °F
Precip. -- in
7:14 AM 8:03 PM
Waning Gibbous, 60% visible
Pressure 30.01 in
Visibility 7.0 miles
Clouds Scattered Clouds 15000 ft
Dew Point 66 °F
Humidity 99%
Rainfall 0.00 in
Snow Depth Not available.
UV 0 out of 12
Pollen 9.70 out of 12
Air Quality Not available.
Flu Activity Not available.
METAR KCHA 041153Z 00000KT 7SM SCT150 22/19 A3003 RMK AO2 SLP161 T02170194 10233 20211 53013
Pressure 30.01 in
Visibility 7.0 miles
Clouds Scattered Clouds 15000 ft
Dew Point 66 °F
Humidity 99%
Rainfall 0.00 in
Snow Depth Not available.
UV 0 out of 12
Pollen 9.70 out of 12
Air Quality Not available.
Flu Activity Not available.
METAR KCHA 041153Z 00000KT 7SM SCT150 22/19 A3003 RMK AO2 SLP161 T02170194 10233 20211 53013

10-Day Weather Forecast

×

Almanac

Astronomy

Sep. 04, 2015 Rise Set
Actual Time
Civil Twilight
Nautical Twilight
Astronomical Twilight
Moon
Length of Visible Light
Length of Day
Tomorrow will be .
, % of the Moon is Illuminated

Today's Extremes

State Highs State Lows

Community

WunderPhotos

Upload Photos

1,852,161 photos uploaded!

WunderBlogs® & News

Nearby

Air Quality

  Air Quality AQ Index Pollutant
Not available.

Snow Depth

Station Depth Elevation

Earthquake Activity

City Distance Mag. Time & Date
Minimum magnitude displayed is 2.5.

Coastal Water Temperatures

Place Temperature

Stations

Nearby Weather Stations

Station Location Temp. Windchill Dew Point Humidity Wind Precip. Elev Updated Type